createdAt,value
2022-09-29T00:01:02.281Z,7.78
2022-09-29T00:03:50.271Z,7.73
2022-09-29T00:06:38.281Z,7.64
2022-09-29T00:09:26.121Z,7.57
2022-09-29T00:12:14.114Z,7.50
2022-09-29T00:15:03.528Z,7.39
2022-09-29T00:18:12.679Z,7.24
2022-09-29T00:21:01.376Z,7.22
2022-09-29T00:23:50.353Z,7.21
2022-09-29T00:26:38.267Z,7.21
2022-09-29T00:29:26.523Z,7.15
2022-09-29T00:32:15.803Z,7.07
2022-09-29T00:35:03.935Z,6.98
2022-09-29T00:37:51.801Z,6.96
2022-09-29T00:40:39.679Z,6.94
2022-09-29T00:43:49.824Z,6.95
2022-09-29T00:46:43.432Z,7.08
2022-09-29T00:49:40.039Z,7.08
2022-09-29T00:52:32.146Z,7.09
2022-09-29T00:55:24.915Z,7.07
2022-09-29T00:58:23.667Z,6.92
2022-09-29T01:01:13.301Z,6.91
2022-09-29T01:04:06.683Z,6.96
2022-09-29T01:06:58.449Z,6.87
2022-09-29T01:09:46.987Z,6.75
2022-09-29T01:12:35.029Z,6.74
2022-09-29T01:15:23.374Z,6.64
2022-09-29T01:18:11.852Z,6.58
2022-09-29T01:21:10.250Z,6.54
2022-09-29T01:24:40.544Z,6.51
2022-09-29T01:27:51.075Z,6.57
2022-09-29T01:30:55.150Z,6.49
2022-09-29T01:33:51.962Z,6.46
2022-09-29T01:36:51.236Z,6.43
2022-09-29T01:39:43.393Z,6.34
2022-09-29T01:42:36.578Z,6.03
2022-09-29T01:45:31.403Z,6.28
2022-09-29T01:48:26.196Z,6.23
2022-09-29T01:51:18.815Z,6.24
2022-09-29T01:54:13.304Z,6.20
2022-09-29T01:57:08.079Z,6.03
2022-09-29T02:00:00.656Z,6.13
2022-09-29T02:02:52.976Z,6.12
2022-09-29T02:05:46.655Z,6.07
2022-09-29T02:08:39.228Z,6.15
2022-09-29T02:11:28.306Z,6.18
2022-09-29T02:14:20.322Z,6.21
2022-09-29T02:17:13.617Z,6.18
2022-09-29T02:20:01.863Z,6.14
2022-09-29T02:22:51.558Z,6.08
2022-09-29T02:25:41.011Z,6.03
2022-09-29T02:28:29.138Z,6.03
2022-09-29T02:31:17.490Z,5.89
2022-09-29T02:34:07.536Z,5.73
2022-09-29T02:37:01.278Z,5.68
2022-09-29T02:40:01.277Z,5.64
2022-09-29T02:43:00.764Z,5.59
2022-09-29T02:46:01.858Z,5.59
2022-09-29T02:49:14.436Z,5.58
2022-09-29T02:52:11.633Z,5.57
2022-09-29T02:55:08.607Z,5.54
2022-09-29T02:58:01.439Z,5.66
2022-09-29T03:00:49.592Z,5.70
2022-09-29T03:03:37.617Z,5.64
2022-09-29T03:06:25.705Z,5.60
2022-09-29T03:09:13.629Z,5.62
2022-09-29T03:12:03.087Z,5.59
2022-09-29T03:14:51.019Z,5.57
2022-09-29T03:17:39.336Z,5.56
2022-09-29T03:20:27.641Z,5.61
2022-09-29T03:23:15.515Z,5.67
2022-09-29T03:26:03.378Z,5.80
2022-09-29T03:28:52.707Z,5.93
2022-09-29T03:31:41.128Z,5.75
2022-09-29T03:34:29.084Z,5.95
2022-09-29T03:37:17.084Z,5.88
2022-09-29T03:40:06.453Z,5.83
2022-09-29T03:42:54.456Z,5.76
2022-09-29T03:45:50.605Z,5.46
2022-09-29T03:48:39.224Z,5.83
2022-09-29T03:51:27.136Z,5.77
2022-09-29T03:54:15.021Z,5.95
2022-09-29T03:57:02.947Z,5.95
2022-09-29T03:59:51.011Z,5.96
2022-09-29T04:02:40.261Z,6.01
2022-09-29T04:05:29.178Z,6.09
2022-09-29T04:08:17.696Z,6.14
2022-09-29T04:11:06.439Z,6.28
2022-09-29T04:13:54.525Z,6.31
2022-09-29T04:16:42.465Z,6.34
2022-09-29T04:19:31.743Z,6.33
2022-09-29T04:22:19.742Z,6.34
2022-09-29T04:25:08.189Z,6.33
2022-09-29T04:27:56.140Z,6.37
2022-09-29T04:30:44.383Z,6.29
2022-09-29T04:33:32.313Z,6.24
2022-09-29T04:36:21.565Z,6.19
2022-09-29T04:39:09.471Z,6.14
2022-09-29T04:41:57.352Z,6.13
2022-09-29T04:44:45.335Z,6.12
2022-09-29T04:47:33.253Z,6.04
2022-09-29T04:50:21.223Z,6.04
2022-09-29T04:53:10.858Z,6.04
2022-09-29T04:55:58.763Z,6.01
2022-09-29T04:58:46.673Z,6.04
2022-09-29T05:01:34.667Z,6.05
2022-09-29T05:04:22.706Z,6.08
2022-09-29T05:07:10.683Z,6.04
2022-09-29T05:09:59.933Z,6.08
2022-09-29T05:12:51.417Z,6.12
2022-09-29T05:15:39.327Z,6.20
2022-09-29T05:18:28.537Z,6.22
2022-09-29T05:21:16.164Z,6.24
2022-09-29T05:23:44.766Z,6.22
2022-09-29T05:26:14.931Z,6.20
2022-09-29T05:28:45.712Z,6.14
2022-09-29T05:31:13.598Z,6.05
2022-09-29T05:33:41.864Z,6.09
2022-09-29T05:36:11.960Z,6.11
2022-09-29T05:38:40.556Z,6.10
2022-09-29T05:41:10.199Z,6.19
2022-09-29T05:43:39.651Z,6.20
2022-09-29T05:46:09.840Z,6.29
2022-09-29T05:48:38.232Z,6.26
2022-09-29T05:51:10.594Z,6.26
2022-09-29T05:53:38.491Z,6.21
2022-09-29T05:56:07.954Z,6.29
2022-09-29T05:58:36.121Z,6.30
2022-09-29T06:01:08.372Z,6.29
2022-09-29T06:03:37.051Z,6.32
2022-09-29T06:06:09.247Z,6.31
2022-09-29T06:08:37.591Z,6.32
2022-09-29T06:11:07.326Z,6.30
2022-09-29T06:13:35.398Z,6.29
2022-09-29T06:16:03.467Z,6.36
2022-09-29T06:18:32.657Z,6.27
2022-09-29T06:21:04.794Z,6.45
2022-09-29T06:23:33.014Z,6.52
2022-09-29T06:26:02.542Z,6.66
2022-09-29T06:28:30.343Z,6.74
2022-09-29T06:31:00.752Z,6.84
2022-09-29T06:33:28.478Z,6.91
2022-09-29T06:36:46.808Z,7.12
2022-09-29T06:39:16.122Z,7.21
2022-09-29T06:41:48.498Z,7.29
2022-09-29T06:44:16.500Z,7.40
2022-09-29T06:46:44.460Z,7.55
2022-09-29T06:49:13.284Z,7.57
2022-09-29T06:51:46.340Z,7.88
2022-09-29T06:54:15.910Z,8.11
2022-09-29T06:56:43.681Z,8.37
2022-09-29T06:59:11.278Z,8.52
2022-09-29T07:01:38.919Z,8.68
2022-09-29T07:04:32.602Z,8.73
2022-09-29T07:07:01.566Z,8.88
2022-09-29T07:09:29.227Z,8.80
2022-09-29T07:11:56.857Z,9.09
2022-09-29T07:14:25.409Z,9.40
2022-09-29T07:16:53.818Z,9.56
2022-09-29T07:19:22.228Z,9.81
2022-09-29T07:21:50.348Z,9.87
2022-09-29T07:24:19.335Z,9.73
2022-09-29T07:26:46.987Z,9.71
2022-09-29T07:29:16.079Z,9.76
2022-09-29T07:31:51.510Z,9.90
2022-09-29T07:34:20.191Z,9.72
2022-09-29T07:36:47.929Z,10.00
2022-09-29T07:39:15.665Z,10.27
2022-09-29T07:41:44.587Z,10.50
2022-09-29T07:44:12.300Z,10.60
2022-09-29T07:46:39.979Z,10.46
2022-09-29T07:49:07.808Z,10.74
2022-09-29T07:51:35.490Z,11.02
2022-09-29T07:54:04.379Z,11.30
2022-09-29T07:56:33.169Z,11.12
2022-09-29T07:59:03.358Z,11.29
2022-09-29T08:01:32.057Z,11.60
2022-09-29T08:04:00.399Z,11.62
2022-09-29T08:06:28.260Z,11.69
2022-09-29T08:09:04.383Z,11.68
2022-09-29T08:11:34.086Z,11.77
2022-09-29T08:14:03.274Z,12.07
2022-09-29T08:16:31.702Z,12.14
2022-09-29T08:18:59.681Z,11.99
2022-09-29T08:21:27.546Z,12.35
2022-09-29T08:23:55.242Z,12.77
2022-09-29T08:26:37.651Z,12.79
2022-09-29T08:29:09.233Z,12.65
2022-09-29T08:31:38.882Z,12.68
2022-09-29T08:34:06.843Z,12.50
2022-09-29T08:36:34.447Z,12.68
2022-09-29T08:39:02.086Z,13.05
2022-09-29T08:41:43.993Z,13.06
2022-09-29T08:44:33.237Z,12.97
2022-09-29T08:47:14.935Z,13.13
2022-09-29T08:49:47.844Z,13.22
2022-09-29T08:52:19.911Z,13.26
2022-09-29T08:54:50.443Z,13.22
2022-09-29T08:57:20.879Z,12.99
2022-09-29T08:59:55.297Z,13.22
2022-09-29T09:02:44.800Z,13.08
2022-09-29T09:05:30.702Z,13.17
2022-09-29T09:08:04.517Z,13.19
2022-09-29T09:10:42.611Z,13.37
2022-09-29T09:13:32.072Z,13.35
2022-09-29T09:16:15.185Z,13.51
2022-09-29T09:19:02.531Z,13.31
2022-09-29T09:21:41.402Z,13.33
2022-09-29T09:24:24.813Z,13.45
2022-09-29T09:26:53.421Z,13.49
2022-09-29T09:29:27.348Z,13.33
2022-09-29T09:32:02.729Z,13.42
2022-09-29T09:34:44.010Z,13.36
2022-09-29T09:37:20.332Z,13.11
2022-09-29T09:39:53.446Z,13.31
2022-09-29T09:42:28.436Z,13.37
2022-09-29T09:45:00.859Z,13.21
2022-09-29T09:47:32.527Z,12.93
2022-09-29T09:50:03.963Z,12.92
2022-09-29T09:52:40.261Z,12.97
2022-09-29T09:55:16.432Z,13.23
2022-09-29T09:58:04.261Z,13.40
2022-09-29T10:00:37.235Z,13.46
2022-09-29T10:03:08.501Z,13.22
2022-09-29T10:05:38.984Z,13.41
2022-09-29T10:08:08.404Z,13.65
2022-09-29T10:10:39.175Z,14.01
2022-09-29T10:13:14.027Z,14.05
2022-09-29T10:15:46.538Z,14.00
2022-09-29T10:18:18.972Z,13.75
2022-09-29T10:20:47.295Z,13.45
2022-09-29T10:23:29.683Z,13.81
2022-09-29T10:26:05.438Z,14.15
2022-09-29T10:28:41.765Z,14.40
2022-09-29T10:31:22.271Z,14.55
2022-09-29T10:33:55.545Z,14.47
2022-09-29T10:36:24.770Z,14.19
2022-09-29T10:38:54.293Z,14.14
2022-09-29T10:41:22.113Z,14.38
2022-09-29T10:43:52.624Z,14.58
2022-09-29T10:46:49.172Z,14.72
2022-09-29T10:49:19.916Z,14.35
2022-09-29T10:51:55.627Z,14.17
2022-09-29T10:54:26.581Z,14.05
2022-09-29T10:56:55.793Z,14.26
2022-09-29T10:59:25.316Z,14.38
2022-09-29T11:01:56.310Z,14.46
2022-09-29T11:04:29.320Z,14.60
2022-09-29T11:06:57.715Z,14.38
2022-09-29T11:09:30.860Z,14.37
2022-09-29T11:12:05.075Z,14.42
2022-09-29T11:14:42.246Z,14.16
2022-09-29T11:17:23.716Z,14.27
2022-09-29T11:19:54.412Z,14.73
2022-09-29T11:22:50.533Z,15.20
2022-09-29T11:25:28.546Z,15.32
2022-09-29T11:28:08.381Z,15.11
2022-09-29T11:30:48.278Z,15.03
2022-09-29T11:33:27.153Z,14.83
2022-09-29T11:36:04.005Z,15.31
2022-09-29T11:38:57.008Z,15.69
2022-09-29T11:41:42.794Z,15.96
2022-09-29T11:44:27.517Z,15.95
2022-09-29T11:47:05.494Z,16.02
2022-09-29T11:49:50.457Z,16.02
2022-09-29T11:52:39.426Z,15.75
2022-09-29T11:55:41.389Z,15.37
2022-09-29T11:58:24.225Z,15.37
2022-09-29T12:01:03.157Z,14.97
2022-09-29T12:03:40.625Z,15.28
2022-09-29T12:06:39.399Z,15.03
2022-09-29T12:09:25.189Z,15.12
2022-09-29T12:15:04.389Z,15.58
2022-09-29T12:17:37.820Z,16.13
2022-09-29T12:20:14.798Z,16.27
2022-09-29T12:22:45.013Z,16.20
2022-09-29T12:25:18.144Z,16.07
2022-09-29T12:27:48.461Z,16.17
2022-09-29T12:30:21.402Z,16.43
2022-09-29T12:32:53.667Z,16.43
2022-09-29T12:35:26.680Z,15.73
2022-09-29T12:37:58.808Z,16.08
2022-09-29T12:40:33.819Z,16.08
2022-09-29T12:43:13.430Z,16.34
2022-09-29T12:45:49.339Z,16.52
2022-09-29T12:48:27.004Z,16.49
2022-09-29T12:51:02.092Z,16.64
2022-09-29T12:53:35.685Z,16.73
2022-09-29T12:56:10.004Z,17.08
2022-09-29T12:58:42.511Z,17.20
2022-09-29T13:01:23.698Z,16.93
2022-09-29T13:04:26.609Z,17.05
2022-09-29T13:07:25.141Z,16.55
2022-09-29T13:10:10.955Z,16.39
2022-09-29T13:12:59.597Z,16.35
2022-09-29T13:15:48.326Z,16.17
2022-09-29T13:19:14.526Z,16.12
2022-09-29T13:22:02.083Z,16.07
2022-09-29T13:24:51.442Z,16.01
2022-09-29T13:27:30.709Z,15.61
2022-09-29T13:30:06.374Z,15.39
2022-09-29T13:32:40.263Z,15.24
2022-09-29T13:35:16.242Z,15.23
2022-09-29T13:37:49.380Z,15.09
2022-09-29T13:40:21.647Z,15.00
2022-09-29T13:42:50.691Z,14.65
2022-09-29T13:45:41.105Z,14.88
2022-09-29T13:48:38.570Z,14.78
2022-09-29T13:51:42.755Z,14.84
2022-09-29T13:54:41.251Z,14.79
2022-09-29T13:57:28.127Z,14.72
2022-09-29T14:00:18.399Z,14.60
2022-09-29T14:02:52.044Z,14.50
2022-09-29T14:05:48.075Z,14.51
2022-09-29T14:08:21.812Z,14.38
2022-09-29T14:10:54.597Z,14.49
2022-09-29T14:13:27.421Z,14.54
2022-09-29T14:16:07.729Z,14.55
2022-09-29T14:18:40.245Z,14.65
2022-09-29T14:21:11.931Z,14.13
2022-09-29T14:23:51.640Z,14.52
2022-09-29T14:26:44.888Z,14.77
2022-09-29T14:29:18.013Z,14.75
2022-09-29T14:31:51.379Z,14.56
2022-09-29T14:34:23.424Z,14.50
2022-09-29T14:36:54.423Z,14.51
2022-09-29T14:39:27.184Z,14.39
2022-09-29T14:41:55.317Z,14.42
2022-09-29T14:44:27.242Z,14.41
2022-09-29T14:47:42.051Z,14.32
2022-09-29T14:50:49.905Z,14.37
2022-09-29T14:53:36.138Z,14.34
2022-09-29T14:56:17.306Z,14.32
2022-09-29T14:59:05.337Z,14.23
2022-09-29T15:01:37.482Z,14.31
2022-09-29T15:04:09.337Z,14.24
2022-09-29T15:06:47.169Z,13.96
2022-09-29T15:09:18.289Z,14.20
2022-09-29T15:11:50.770Z,14.15
2022-09-29T15:14:25.130Z,14.38
2022-09-29T15:17:06.882Z,14.42
2022-09-29T15:19:55.288Z,14.47
2022-09-29T15:23:10.892Z,14.48
2022-09-29T15:25:42.399Z,14.42
2022-09-29T15:28:16.162Z,14.36
2022-09-29T15:30:44.956Z,14.41
2022-09-29T15:33:21.882Z,14.42
2022-09-29T15:35:53.326Z,14.37
2022-09-29T15:38:34.443Z,14.34
2022-09-29T15:41:16.581Z,14.27
2022-09-29T15:43:46.691Z,14.15
2022-09-29T15:46:18.042Z,14.00
2022-09-29T15:49:07.245Z,13.81
2022-09-29T15:51:35.925Z,13.76
2022-09-29T15:54:07.281Z,13.68
2022-09-29T15:56:57.262Z,13.57
2022-09-29T15:59:41.510Z,13.54
2022-09-29T16:02:18.529Z,13.49
2022-09-29T16:04:49.652Z,13.50
2022-09-29T16:07:24.622Z,13.45
2022-09-29T16:09:52.792Z,13.40
2022-09-29T16:12:21.941Z,13.31
2022-09-29T16:14:55.341Z,13.28
2022-09-29T16:17:23.077Z,13.20
2022-09-29T16:19:51.110Z,13.15
2022-09-29T16:22:23.840Z,13.10
2022-09-29T16:25:08.261Z,13.04
2022-09-29T16:27:46.249Z,12.78
2022-09-29T16:30:24.583Z,12.81
2022-09-29T16:32:58.524Z,12.71
2022-09-29T16:35:42.960Z,12.60
2022-09-29T16:38:20.411Z,12.43
2022-09-29T16:40:48.541Z,12.39
2022-09-29T16:43:24.361Z,12.32
2022-09-29T16:45:53.905Z,12.24
2022-09-29T16:48:22.141Z,12.24
2022-09-29T16:50:50.606Z,12.15
2022-09-29T16:53:26.885Z,12.07
2022-09-29T16:55:58.715Z,11.95
2022-09-29T16:58:28.920Z,11.89
2022-09-29T17:00:57.476Z,11.74
2022-09-29T17:03:25.182Z,11.73
2022-09-29T17:05:53.657Z,11.73
2022-09-29T17:08:23.993Z,11.71
2022-09-29T17:10:51.987Z,11.68
2022-09-29T17:13:20.394Z,11.59
2022-09-29T17:15:52.159Z,11.43
2022-09-29T17:18:21.960Z,11.34
2022-09-29T17:20:49.587Z,11.34
2022-09-29T17:23:17.243Z,11.23
2022-09-29T17:25:47.207Z,11.12
2022-09-29T17:28:16.315Z,11.02
2022-09-29T17:30:47.327Z,10.92
2022-09-29T17:33:18.144Z,10.87
2022-09-29T17:35:51.715Z,10.81
2022-09-29T17:38:22.682Z,10.81
2022-09-29T17:40:53.669Z,10.76
2022-09-29T17:43:23.329Z,10.71
2022-09-29T17:45:51.667Z,10.35
2022-09-29T17:48:20.652Z,10.65
2022-09-29T17:50:49.951Z,10.55
2022-09-29T17:53:18.543Z,10.48
2022-09-29T17:55:49.481Z,10.15
2022-09-29T17:58:18.614Z,10.49
2022-09-29T18:00:48.623Z,10.21
2022-09-29T18:03:18.230Z,10.45
2022-09-29T18:05:48.852Z,10.38
2022-09-29T18:08:18.372Z,10.40
2022-09-29T18:10:52.344Z,10.30
2022-09-29T18:13:20.093Z,10.31
2022-09-29T18:15:48.033Z,10.25
2022-09-29T18:18:18.013Z,10.19
2022-09-29T18:20:47.188Z,10.17
2022-09-29T18:23:15.450Z,10.13
2022-09-29T18:25:47.663Z,9.85
2022-09-29T18:28:16.599Z,10.08
2022-09-29T18:30:46.920Z,10.02
2022-09-29T18:33:16.716Z,10.04
2022-09-29T18:35:47.458Z,10.05
2022-09-29T18:38:15.124Z,10.01
2022-09-29T18:40:42.817Z,9.97
2022-09-29T18:43:13.208Z,9.99
2022-09-29T18:45:42.268Z,9.97
2022-09-29T18:48:13.566Z,9.93
2022-09-29T18:50:43.888Z,9.94
2022-09-29T18:53:13.993Z,9.79
2022-09-29T18:55:42.532Z,9.70
2022-09-29T18:58:13.731Z,9.69
2022-09-29T19:00:44.775Z,9.73
2022-09-29T19:03:12.489Z,9.84
2022-09-29T19:05:43.227Z,9.88
2022-09-29T19:08:14.050Z,9.69
2022-09-29T19:10:47.827Z,9.88
2022-09-29T19:13:16.015Z,9.87
2022-09-29T19:15:44.801Z,9.84
2022-09-29T19:18:23.290Z,9.84
2022-09-29T19:20:52.040Z,9.88
2022-09-29T19:23:20.992Z,9.90
2022-09-29T19:25:49.906Z,9.81
2022-09-29T19:28:18.941Z,9.94
2022-09-29T19:30:47.697Z,9.93
2022-09-29T19:33:17.820Z,9.86
2022-09-29T19:35:48.297Z,9.92
2022-09-29T19:38:16.422Z,9.79
2022-09-29T19:40:46.603Z,9.84
2022-09-29T19:43:15.187Z,9.85
2022-09-29T19:45:44.704Z,9.30
2022-09-29T19:48:16.148Z,9.89
2022-09-29T19:51:01.635Z,9.90
2022-09-29T19:53:29.337Z,9.87
2022-09-29T19:55:58.628Z,9.91
2022-09-29T19:58:26.881Z,9.76
2022-09-29T20:00:57.266Z,9.87
2022-09-29T20:03:47.863Z,9.90
2022-09-29T20:06:36.632Z,9.87
2022-09-29T20:09:24.915Z,9.85
2022-09-29T20:12:19.448Z,9.81
2022-09-29T20:15:08.918Z,9.82
2022-09-29T20:17:56.984Z,9.82
2022-09-29T20:20:44.939Z,9.81
2022-09-29T20:23:32.868Z,9.80
2022-09-29T20:26:20.913Z,9.80
2022-09-29T20:29:10.159Z,9.82
2022-09-29T20:31:58.186Z,9.80
2022-09-29T20:34:46.381Z,9.73
2022-09-29T20:37:35.096Z,9.71
2022-09-29T20:40:22.950Z,9.74
2022-09-29T20:43:14.166Z,9.71
2022-09-29T20:46:05.383Z,9.68
2022-09-29T20:48:54.912Z,9.47
2022-09-29T20:51:43.273Z,9.59
2022-09-29T20:54:31.198Z,9.52
2022-09-29T20:57:19.424Z,9.45
2022-09-29T21:00:09.883Z,9.39
2022-09-29T21:02:59.174Z,9.34
2022-09-29T21:05:47.600Z,9.35
2022-09-29T21:08:36.477Z,9.28
2022-09-29T21:11:24.490Z,9.23
2022-09-29T21:14:16.692Z,9.25
2022-09-29T21:17:04.612Z,9.26
2022-09-29T21:19:53.832Z,9.22
2022-09-29T21:22:41.700Z,9.16
2022-09-29T21:25:31.777Z,9.12
2022-09-29T21:28:19.658Z,9.04
2022-09-29T21:31:10.538Z,8.97
2022-09-29T21:34:01.425Z,8.90
2022-09-29T21:36:50.733Z,8.69
2022-09-29T21:39:38.626Z,8.65
2022-09-29T21:42:27.285Z,8.65
2022-09-29T21:45:15.191Z,8.70
2022-09-29T21:48:09.042Z,8.67
2022-09-29T21:51:03.279Z,8.69
2022-09-29T21:53:54.387Z,8.66
2022-09-29T21:56:44.254Z,8.33
2022-09-29T21:59:32.244Z,8.61
2022-09-29T22:02:20.305Z,8.51
2022-09-29T22:05:08.762Z,8.41
2022-09-29T22:07:56.699Z,8.34
2022-09-29T22:10:49.085Z,8.34
2022-09-29T22:13:37.825Z,8.33
2022-09-29T22:16:28.962Z,8.18
2022-09-29T22:19:32.670Z,8.38
2022-09-29T22:22:20.709Z,8.39
2022-09-29T22:25:09.217Z,7.84
2022-09-29T22:27:58.874Z,8.47
2022-09-29T22:30:46.776Z,8.46
2022-09-29T22:33:35.753Z,8.53
2022-09-29T22:36:24.092Z,8.58
2022-09-29T22:39:12.058Z,8.67
2022-09-29T22:42:01.180Z,8.68
2022-09-29T22:44:50.402Z,8.73
2022-09-29T22:47:38.290Z,8.68
2022-09-29T22:50:27.579Z,8.61
2022-09-29T22:53:16.686Z,8.57
2022-09-29T22:56:10.348Z,8.51
2022-09-29T22:59:00.931Z,8.47
2022-09-29T23:01:50.218Z,8.47
2022-09-29T23:04:38.167Z,8.45
2022-09-29T23:07:26.094Z,8.44
2022-09-29T23:10:14.031Z,8.53
2022-09-29T23:13:02.271Z,8.54
2022-09-29T23:15:51.013Z,8.62
2022-09-29T23:18:43.895Z,8.64
2022-09-29T23:21:34.310Z,8.65
2022-09-29T23:24:24.303Z,8.63
2022-09-29T23:27:12.191Z,8.63
2022-09-29T23:30:00.288Z,8.63
2022-09-29T23:32:48.248Z,8.63
2022-09-29T23:35:37.469Z,8.69
2022-09-29T23:38:42.918Z,8.72
2022-09-29T23:41:32.196Z,8.81
2022-09-29T23:44:22.379Z,8.71
2022-09-29T23:47:10.281Z,8.74
2022-09-29T23:49:58.201Z,8.81
2022-09-29T23:52:47.434Z,8.78
2022-09-29T23:55:35.438Z,8.84
2022-09-29T23:58:23.359Z,8.85
